Time;durP1;ratioP1;P1;durP2;ratioP2;P2;SDS_P1;SDS_P2;PMS_P1;PMS_P2;Temp;Humidity;BMP_temperature;BMP_pressure;BME280_temperature;BME280_humidity;BME280_pressure;Samples;Min_cycle;Max_cycle;Signal;HPM_P1;HPM_P2
2023/08/24 20:06:25;;;;;;;15.25;10.60;;;;;;;;;;7402998;19;20409;-71
2023/08/24 20:08:52;;;;;;;29.52;23.40;;;;;;;;;;7401867;19;20018;-71
2023/08/24 20:11:18;;;;;;;13.10;9.82;;;;;;;;;;7404203;19;20006;-72
2023/08/24 20:13:44;;;;;;;15.43;11.35;;;;;;;;;;7420125;19;20484;-72
2023/08/24 20:16:09;;;;;;;15.88;10.30;;;;;;;;;;7410976;19;20006;-72
2023/08/24 20:18:36;;;;;;;16.52;11.65;;;;;;;;;;7404140;19;20022;-72
2023/08/24 20:21:05;;;;;;;13.80;9.93;;;;;;;;;;7402914;19;20006;-72
2023/08/24 20:23:32;;;;;;;13.30;10.13;;;;;;;;;;7402988;19;20041;-72
2023/08/24 20:25:58;;;;;;;15.00;11.50;;;;;;;;;;7399939;19;20006;-72
2023/08/24 20:28:28;;;;;;;15.05;10.27;;;;;;;;;;7425941;19;19998;-72
2023/08/24 20:30:54;;;;;;;12.82;9.75;;;;;;;;;;7403354;19;20002;-74
2023/08/24 20:33:20;;;;;;;11.63;9.70;;;;;;;;;;7403403;19;20089;-73
2023/08/24 20:35:45;;;;;;;13.32;9.23;;;;;;;;;;7402865;19;20014;-72
2023/08/24 20:38:10;;;;;;;14.55;9.40;;;;;;;;;;7402859;19;20042;-72
2023/08/24 20:40:37;;;;;;;13.23;9.63;;;;;;;;;;7424751;19;19994;-71
2023/08/24 20:43:02;;;;;;;11.85;9.13;;;;;;;;;;7402101;19;20476;-73
2023/08/24 20:45:28;;;;;;;13.13;10.63;;;;;;;;;;7400545;19;20038;-72
2023/08/24 20:47:54;;;;;;;13.57;10.15;;;;;;;;;;7402436;19;20461;-72
2023/08/24 20:50:19;;;;;;;16.40;10.80;;;;;;;;;;7401707;19;20441;-72
2023/08/24 20:52:44;;;;;;;16.80;10.50;;;;;;;;;;7411781;19;20013;-72
2023/08/24 20:55:13;;;;;;;13.65;9.45;;;;;;;;;;7414033;19;20005;-71
2023/08/24 20:57:38;;;;;;;14.55;10.07;;;;;;;;;;7401849;19;20010;-71
2023/08/24 21:00:05;;;;;;;15.38;10.23;;;;;;;;;;7402691;19;20006;-71
2023/08/24 21:02:32;;;;;;;16.48;10.55;;;;;;;;;;7400585;19;20006;-72
2023/08/24 21:04:58;;;;;;;15.93;10.32;;;;;;;;;;7399025;19;19998;-72
2023/08/24 21:07:25;;;;;;;17.20;11.02;;;;;;;;;;7423413;19;20062;-72
2023/08/24 21:09:50;;;;;;;15.43;11.38;;;;;;;;;;7401226;19;20030;-72
2023/08/24 21:12:15;;;;;;;16.17;10.82;;;;;;;;;;7401165;19;20265;-71
2023/08/24 21:14:41;;;;;;;13.30;10.93;;;;;;;;;;7399839;19;20697;-71
2023/08/24 21:17:06;;;;;;;14.43;10.95;;;;;;;;;;7376950;19;20086;-72
2023/08/24 21:19:31;;;;;;;15.05;10.43;;;;;;;;;;7394577;19;20015;-71
2023/08/24 21:21:57;;;;;;;15.13;11.63;;;;;;;;;;7372572;19;20031;-71
2023/08/24 21:24:22;;;;;;;13.90;11.63;;;;;;;;;;7370253;19;20045;-72
2023/08/24 21:26:47;;;;;;;15.43;10.50;;;;;;;;;;7371969;19;20006;-71
2023/08/24 21:29:13;;;;;;;18.48;11.65;;;;;;;;;;7373010;19;20048;-72
2023/08/24 21:31:38;;;;;;;15.63;11.13;;;;;;;;;;7394729;19;19995;-72
2023/08/24 21:34:03;;;;;;;15.50;10.77;;;;;;;;;;7371084;19;20080;-72
2023/08/24 21:36:29;;;;;;;17.67;11.25;;;;;;;;;;7371767;19;20006;-72
2023/08/24 21:38:54;;;;;;;17.08;11.23;;;;;;;;;;7373507;19;20009;-71
2023/08/24 21:41:19;;;;;;;16.35;11.27;;;;;;;;;;7372211;19;20027;-71
2023/08/24 21:43:45;;;;;;;25.85;20.10;;;;;;;;;;7378017;19;20044;-72
2023/08/24 21:46:11;;;;;;;28.67;22.25;;;;;;;;;;7386205;19;20006;-71
2023/08/24 21:48:36;;;;;;;18.05;12.93;;;;;;;;;;7371390;19;20405;-71
2023/08/24 21:51:02;;;;;;;16.17;12.40;;;;;;;;;;7371750;19;20014;-73
2023/08/24 21:53:27;;;;;;;17.52;12.70;;;;;;;;;;7372000;19;20472;-72
2023/08/24 21:55:52;;;;;;;16.17;12.77;;;;;;;;;;7371194;19;20002;-72
2023/08/24 21:58:18;;;;;;;17.83;12.27;;;;;;;;;;7393734;19;20371;-72
2023/08/24 22:00:44;;;;;;;15.77;12.15;;;;;;;;;;7371958;19;20005;-72
2023/08/24 22:03:09;;;;;;;17.13;11.65;;;;;;;;;;7370259;19;20010;-71
2023/08/24 22:05:35;;;;;;;17.27;11.77;;;;;;;;;;7368841;19;20006;-72
2023/08/24 22:08:03;;;;;;;13.90;10.98;;;;;;;;;;7371057;19;20035;-71
2023/08/24 22:10:28;;;;;;;21.40;12.20;;;;;;;;;;7393147;19;20003;-71
2023/08/24 22:12:54;;;;;;;14.32;10.77;;;;;;;;;;7370488;19;20010;-72
2023/08/24 22:15:19;;;;;;;15.45;11.60;;;;;;;;;;7369940;19;20339;-72
2023/08/24 22:17:45;;;;;;;17.17;11.88;;;;;;;;;;7370883;19;20017;-72
2023/08/24 22:20:11;;;;;;;13.88;11.07;;;;;;;;;;7371405;19;20010;-72
2023/08/24 22:22:37;;;;;;;16.58;11.68;;;;;;;;;;7393256;19;19998;-72
2023/08/24 22:25:03;;;;;;;20.80;11.75;;;;;;;;;;7367898;19;20010;-72
2023/08/24 22:27:29;;;;;;;14.57;11.48;;;;;;;;;;7370724;19;20023;-73
2023/08/24 22:29:55;;;;;;;16.52;11.73;;;;;;;;;;7371391;19;20375;-72
2023/08/24 22:32:20;;;;;;;17.38;11.23;;;;;;;;;;7370460;19;20139;-72
2023/08/24 22:34:46;;;;;;;17.50;11.73;;;;;;;;;;7367420;19;20108;-72
2023/08/24 22:37:11;;;;;;;14.75;11.63;;;;;;;;;;7391950;19;20002;-73
2023/08/24 22:39:36;;;;;;;16.60;11.32;;;;;;;;;;7370462;19;20009;-72
2023/08/24 22:42:02;;;;;;;13.73;11.35;;;;;;;;;;7370953;19;20010;-72
2023/08/24 22:44:27;;;;;;;19.42;12.32;;;;;;;;;;7368203;19;20477;-72
2023/08/24 22:46:52;;;;;;;16.58;12.40;;;;;;;;;;7370527;19;20002;-72
2023/08/24 22:49:17;;;;;;;16.80;13.45;;;;;;;;;;7391425;19;20031;-72
2023/08/24 22:51:43;;;;;;;22.25;14.13;;;;;;;;;;7369775;19;20006;-72
2023/08/24 22:54:09;;;;;;;16.38;13.43;;;;;;;;;;7369369;19;20009;-71
2023/08/24 22:56:35;;;;;;;17.08;14.43;;;;;;;;;;7371613;19;20040;-71
2023/08/24 22:59:01;;;;;;;18.50;14.20;;;;;;;;;;7370355;19;20006;-72
2023/08/24 23:01:26;;;;;;;19.08;14.55;;;;;;;;;;7392620;19;20013;-71
2023/08/24 23:03:52;;;;;;;17.90;14.65;;;;;;;;;;7369652;19;20011;-72
2023/08/24 23:06:21;;;;;;;18.70;15.23;;;;;;;;;;7369203;19;20017;-71
2023/08/24 23:08:47;;;;;;;19.75;14.38;;;;;;;;;;7370753;19;20010;-71
2023/08/24 23:11:13;;;;;;;18.25;13.88;;;;;;;;;;7369696;19;20006;-71
2023/08/24 23:13:39;;;;;;;33.55;26.38;;;;;;;;;;7390864;19;20002;-71
2023/08/24 23:16:05;;;;;;;20.48;16.30;;;;;;;;;;7367930;19;19999;-72
2023/08/24 23:18:37;;;;;;;17.48;14.73;;;;;;;;;;7369562;19;20550;-73
2023/08/24 23:21:02;;;;;;;21.00;15.05;;;;;;;;;;7369498;19;20014;-72
2023/08/24 23:23:27;;;;;;;19.95;14.45;;;;;;;;;;7368123;19;20006;-72
2023/08/24 23:25:53;;;;;;;18.98;14.73;;;;;;;;;;7364432;19;20181;-71
2023/08/24 23:28:18;;;;;;;21.80;14.32;;;;;;;;;;7390799;19;20062;-71
2023/08/24 23:30:45;;;;;;;19.05;14.23;;;;;;;;;;7368139;19;20015;-71
2023/08/24 23:33:13;;;;;;;18.23;14.00;;;;;;;;;;7369801;19;20457;-71
2023/08/24 23:35:39;;;;;;;17.73;13.90;;;;;;;;;;7367851;19;20017;-72
2023/08/24 23:38:05;;;;;;;18.80;13.65;;;;;;;;;;7380654;19;19996;-71
2023/08/24 23:40:31;;;;;;;17.90;14.35;;;;;;;;;;7423312;19;20006;-70
2023/08/24 23:42:56;;;;;;;21.17;13.73;;;;;;;;;;7399398;19;20007;-71
2023/08/24 23:45:21;;;;;;;17.63;14.52;;;;;;;;;;7373970;19;20528;-72
2023/08/24 23:47:46;;;;;;;17.60;12.52;;;;;;;;;;7370264;19;20014;-71
2023/08/24 23:50:12;;;;;;;17.75;13.82;;;;;;;;;;7369201;19;20013;-72
2023/08/24 23:52:37;;;;;;;24.42;14.95;;;;;;;;;;7390616;19;20002;-71
2023/08/24 23:55:03;;;;;;;16.25;13.55;;;;;;;;;;7371273;19;20017;-70
2023/08/24 23:57:28;;;;;;;18.13;14.63;;;;;;;;;;7372465;19;20081;-71
2023/08/24 23:59:53;;;;;;;21.83;15.50;;;;;;;;;;7368870;19;20011;-74
